createdAt,value
2022-11-23T00:00:45.558Z,61.07
2022-11-23T00:04:45.705Z,60.88
2022-11-23T00:08:48.676Z,61.80
2022-11-23T00:12:49.231Z,61.65
2022-11-23T00:16:49.416Z,62.05
2022-11-23T00:20:49.463Z,62.67
2022-11-23T00:24:52.366Z,62.91
2022-11-23T00:28:53.278Z,62.45
2022-11-23T00:32:53.398Z,62.09
2022-11-23T00:36:54.549Z,62.56
2022-11-23T00:41:02.669Z,62.42
2022-11-23T00:45:02.959Z,62.38
2022-11-23T00:49:03.340Z,62.09
2022-11-23T00:53:03.720Z,62.39
2022-11-23T00:57:06.786Z,61.85
2022-11-23T01:01:11.214Z,62.09
2022-11-23T01:05:12.258Z,62.11
2022-11-23T01:09:17.923Z,62.75
2022-11-23T01:13:20.886Z,62.25
2022-11-23T01:17:21.245Z,61.70
2022-11-23T01:21:21.513Z,61.54
2022-11-23T01:25:21.963Z,62.22
2022-11-23T01:29:26.028Z,61.54
2022-11-23T01:33:26.148Z,61.82
2022-11-23T01:37:26.540Z,61.44
2022-11-23T01:41:29.950Z,61.07
2022-11-23T01:45:59.555Z,60.96
2022-11-23T01:49:59.903Z,60.89
2022-11-23T01:54:05.314Z,60.72
2022-11-23T01:58:07.110Z,60.85
2022-11-23T02:02:10.336Z,60.42
2022-11-23T02:06:17.940Z,60.50
2022-11-23T02:10:19.199Z,60.39
2022-11-23T02:14:23.421Z,60.38
2022-11-23T02:18:33.920Z,60.40
2022-11-23T02:22:46.585Z,60.58
2022-11-23T02:26:49.587Z,60.66
2022-11-23T02:30:53.880Z,60.73
2022-11-23T02:34:56.723Z,60.85
2022-11-23T02:38:58.683Z,60.18
2022-11-23T02:43:02.018Z,60.33
2022-11-23T02:47:02.416Z,60.33
2022-11-23T02:51:02.744Z,60.71
2022-11-23T02:55:04.876Z,61.18
2022-11-23T02:59:07.686Z,60.75
2022-11-23T03:03:08.547Z,60.65
2022-11-23T03:07:08.969Z,60.49
2022-11-23T03:11:09.560Z,60.20
2022-11-23T03:15:13.755Z,61.01
2022-11-23T03:19:14.885Z,60.99
2022-11-23T03:23:15.323Z,61.11
2022-11-23T03:27:16.950Z,60.77
2022-11-23T03:31:20.612Z,60.75
2022-11-23T03:35:21.747Z,60.98
2022-11-23T03:39:48.008Z,60.58
2022-11-23T03:44:07.023Z,60.39
2022-11-23T03:48:10.463Z,60.36
2022-11-23T03:52:10.702Z,60.29
2022-11-23T03:56:11.602Z,60.58
2022-11-23T04:00:17.574Z,60.40
2022-11-23T04:04:21.821Z,60.50
2022-11-23T04:09:02.429Z,59.83
2022-11-23T04:13:40.511Z,60.32
2022-11-23T04:17:42.223Z,60.12
2022-11-23T04:21:44.982Z,61.07
2022-11-23T04:25:49.179Z,60.95
2022-11-23T04:29:49.999Z,60.49
2022-11-23T04:33:51.219Z,60.52
2022-11-23T04:37:55.908Z,60.90
2022-11-23T04:41:59.791Z,61.18
2022-11-23T04:46:00.428Z,61.14
2022-11-23T04:50:03.803Z,60.84
2022-11-23T04:54:07.503Z,61.18
2022-11-23T04:58:15.600Z,60.85
2022-11-23T05:02:16.185Z,61.76
2022-11-23T05:06:26.895Z,61.37
2022-11-23T05:10:30.742Z,62.05
2022-11-23T05:14:32.468Z,62.12
2022-11-23T05:18:32.734Z,62.15
2022-11-23T05:22:33.050Z,62.95
2022-11-23T05:26:35.778Z,62.81
2022-11-23T05:30:36.539Z,62.85
2022-11-23T05:34:36.905Z,63.11
2022-11-23T05:38:38.300Z,62.97
2022-11-23T05:42:46.986Z,62.63
2022-11-23T05:46:53.070Z,63.24
2022-11-23T05:50:54.893Z,62.94
2022-11-23T05:55:07.074Z,62.72
2022-11-23T05:59:10.316Z,62.49
2022-11-23T06:03:12.679Z,62.49
2022-11-23T06:07:13.998Z,62.24
2022-11-23T06:11:33.519Z,62.13
2022-11-23T06:15:42.314Z,62.27
2022-11-23T06:19:42.659Z,61.79
2022-11-23T06:23:44.693Z,62.11
2022-11-23T06:27:45.007Z,61.64
2022-11-23T06:31:56.030Z,60.79
2022-11-23T06:35:57.915Z,61.87
2022-11-23T06:40:02.056Z,61.88
2022-11-23T06:44:02.338Z,62.10
2022-11-23T06:48:14.678Z,62.03
2022-11-23T06:52:19.034Z,62.40
2022-11-23T06:56:20.076Z,61.85
2022-11-23T07:05:32.778Z,62.50
2022-11-23T07:09:33.513Z,62.43
2022-11-23T07:13:59.926Z,61.50
2022-11-23T07:18:02.679Z,61.35
2022-11-23T07:22:05.887Z,60.64
2022-11-23T07:26:06.484Z,60.59
2022-11-23T07:30:08.305Z,60.90
2022-11-23T07:34:09.416Z,60.84
2022-11-23T07:38:12.447Z,60.08
2022-11-23T07:42:31.661Z,60.25
2022-11-23T07:46:32.865Z,60.03
2022-11-23T07:50:33.667Z,59.74
2022-11-23T07:54:36.441Z,59.97
2022-11-23T07:58:36.565Z,60.56
2022-11-23T08:02:36.650Z,60.28
2022-11-23T08:06:36.841Z,60.80
2022-11-23T08:10:47.170Z,60.32
2022-11-23T08:14:50.183Z,60.79
2022-11-23T08:18:51.024Z,60.70
2022-11-23T08:22:51.247Z,60.18
2022-11-23T08:26:53.912Z,60.57
2022-11-23T08:30:54.033Z,60.41
2022-11-23T08:34:54.230Z,61.13
2022-11-23T08:38:54.428Z,61.27
2022-11-23T08:42:58.002Z,60.16
2022-11-23T08:46:58.272Z,59.33
2022-11-23T08:51:01.822Z,59.95
2022-11-23T08:55:01.928Z,59.81
2022-11-23T08:59:04.658Z,58.43
2022-11-23T09:03:04.889Z,57.63
2022-11-23T09:07:06.596Z,57.55
2022-11-23T09:11:10.867Z,56.87
2022-11-23T09:15:14.051Z,57.00
2022-11-23T09:19:17.407Z,57.77
2022-11-23T09:23:17.631Z,56.93
2022-11-23T09:27:18.274Z,56.20
2022-11-23T09:31:21.218Z,56.00
2022-11-23T09:35:21.476Z,56.33
2022-11-23T09:39:21.749Z,55.57
2022-11-23T09:43:45.332Z,55.75
2022-11-23T09:48:08.423Z,55.95
2022-11-23T09:52:19.576Z,55.85
2022-11-23T09:56:24.055Z,56.25
2022-11-23T10:00:26.585Z,55.98
2022-11-23T10:04:38.540Z,55.73
2022-11-23T10:08:49.379Z,55.41
2022-11-23T10:13:02.824Z,54.99
2022-11-23T10:17:16.730Z,54.69
2022-11-23T10:21:32.092Z,55.51
2022-11-23T10:25:41.711Z,54.26
2022-11-23T10:29:42.892Z,54.11
2022-11-23T10:33:58.333Z,53.85
2022-11-23T10:38:18.808Z,54.54
2022-11-23T10:42:27.413Z,54.62
2022-11-23T10:46:34.768Z,54.62
2022-11-23T10:50:37.693Z,54.47
2022-11-23T10:54:54.417Z,53.41
2022-11-23T10:58:54.847Z,54.39
2022-11-23T11:02:57.577Z,53.64
2022-11-23T11:07:22.439Z,52.65
2022-11-23T11:11:31.021Z,53.14
2022-11-23T11:15:31.358Z,52.14
2022-11-23T11:19:35.106Z,51.42
2022-11-23T11:23:37.582Z,52.56
2022-11-23T11:27:40.459Z,52.94
2022-11-23T11:31:55.148Z,52.71
2022-11-23T11:35:58.215Z,52.21
2022-11-23T11:40:09.845Z,50.83
2022-11-23T11:44:23.126Z,51.44
2022-11-23T11:48:31.140Z,51.39
2022-11-23T11:52:38.902Z,51.22
2022-11-23T11:56:44.651Z,51.73
2022-11-23T12:00:51.969Z,50.97
2022-11-23T12:05:14.391Z,50.89
2022-11-23T12:09:21.761Z,51.91
2022-11-23T12:13:25.519Z,51.88
2022-11-23T12:18:11.553Z,52.12
2022-11-23T12:22:44.464Z,52.51
2022-11-23T12:26:56.288Z,52.16
2022-11-23T12:31:11.784Z,52.25
2022-11-23T12:35:49.049Z,50.87
2022-11-23T12:40:16.985Z,50.92
2022-11-23T12:44:57.451Z,51.60
2022-11-23T12:49:21.713Z,51.05
2022-11-23T12:53:44.127Z,50.75
2022-11-23T12:57:55.167Z,49.71
2022-11-23T13:02:02.871Z,50.21
2022-11-23T13:07:27.623Z,51.20
2022-11-23T13:11:50.882Z,50.70
2022-11-23T13:16:19.929Z,51.06
2022-11-23T13:20:44.868Z,51.52
2022-11-23T13:25:06.244Z,52.57
2022-11-23T13:29:58.794Z,52.62
2022-11-23T13:34:01.490Z,52.15
2022-11-23T13:38:31.417Z,52.39
2022-11-23T13:42:37.307Z,52.55
2022-11-23T13:46:40.702Z,52.92
2022-11-23T13:50:57.762Z,53.72
2022-11-23T13:55:22.599Z,53.03
2022-11-23T13:59:34.865Z,52.68
2022-11-23T14:03:58.715Z,52.59
2022-11-23T14:08:02.434Z,52.52
2022-11-23T14:12:11.884Z,52.29
2022-11-23T14:16:21.269Z,54.16
2022-11-23T14:20:44.000Z,54.35
2022-11-23T14:25:07.029Z,54.10
2022-11-23T14:29:35.145Z,54.66
2022-11-23T14:33:47.243Z,55.36
2022-11-23T14:38:09.195Z,55.01
2022-11-23T14:42:17.317Z,55.18
2022-11-23T14:46:21.218Z,54.74
2022-11-23T14:50:27.685Z,54.51
2022-11-23T14:54:32.319Z,55.08
2022-11-23T14:58:36.050Z,54.62
2022-11-23T15:02:40.607Z,55.16
2022-11-23T15:06:50.191Z,54.88
2022-11-23T15:11:03.427Z,56.28
2022-11-23T15:15:03.570Z,55.59
2022-11-23T15:19:19.216Z,55.75
2022-11-23T15:23:25.085Z,55.41
2022-11-23T15:27:31.053Z,54.67
2022-11-23T15:31:35.843Z,55.22
2022-11-23T15:35:39.640Z,55.91
2022-11-23T15:39:41.007Z,55.43
2022-11-23T15:43:56.143Z,55.60
2022-11-23T15:47:56.330Z,56.13
2022-11-23T15:52:04.075Z,55.49
2022-11-23T15:56:09.019Z,56.03
2022-11-23T16:00:25.812Z,55.45
2022-11-23T16:04:31.677Z,55.10
2022-11-23T16:08:40.800Z,55.67
2022-11-23T16:12:52.486Z,56.01
2022-11-23T16:17:17.494Z,55.53
2022-11-23T16:21:21.681Z,55.72
2022-11-23T16:25:31.755Z,55.88
2022-11-23T16:29:38.518Z,55.75
2022-11-23T16:33:41.194Z,56.20
2022-11-23T16:37:41.296Z,55.56
2022-11-23T16:41:41.773Z,55.74
2022-11-23T16:45:46.511Z,56.08
2022-11-23T16:49:49.364Z,56.03
2022-11-23T16:58:17.052Z,56.83
2022-11-23T17:02:19.081Z,56.89
2022-11-23T17:06:25.148Z,56.91
2022-11-23T17:10:25.484Z,57.42
2022-11-23T17:14:29.470Z,57.38
2022-11-23T17:18:30.013Z,56.79
2022-11-23T17:22:32.724Z,56.43
2022-11-23T17:26:38.112Z,56.83
2022-11-23T17:30:38.300Z,57.16
2022-11-23T17:34:38.554Z,57.20
2022-11-23T17:38:44.598Z,57.59
2022-11-23T17:42:44.685Z,58.42
2022-11-23T17:46:45.541Z,58.05
2022-11-23T17:50:47.584Z,58.44
2022-11-23T17:54:50.278Z,58.79
2022-11-23T17:58:50.901Z,58.66
2022-11-23T18:02:52.873Z,59.07
2022-11-23T18:06:53.028Z,59.14
2022-11-23T18:10:59.058Z,58.10
2022-11-23T18:14:59.476Z,58.26
2022-11-23T18:18:59.700Z,57.81
2022-11-23T18:22:59.845Z,57.63
2022-11-23T18:27:02.501Z,58.65
2022-11-23T18:31:02.640Z,58.71
2022-11-23T18:35:02.768Z,58.59
2022-11-23T18:39:02.868Z,58.28
2022-11-23T18:43:05.536Z,57.78
2022-11-23T18:47:05.996Z,58.21
2022-11-23T18:51:11.743Z,58.06
2022-11-23T18:55:12.333Z,57.70
2022-11-23T18:59:28.989Z,57.79
2022-11-23T19:03:37.752Z,57.82
2022-11-23T19:07:38.057Z,57.68
2022-11-23T19:11:39.169Z,57.69
2022-11-23T19:15:41.952Z,57.74
2022-11-23T19:19:42.139Z,57.14
2022-11-23T19:23:42.558Z,57.23
2022-11-23T19:27:42.778Z,57.76
2022-11-23T19:31:45.850Z,57.36
2022-11-23T19:35:46.705Z,57.72
2022-11-23T19:39:47.145Z,57.63
2022-11-23T19:43:47.805Z,57.36
2022-11-23T19:47:50.485Z,57.60
2022-11-23T19:51:52.776Z,57.30
2022-11-23T19:55:53.631Z,56.72
2022-11-23T19:59:53.888Z,56.98
2022-11-23T20:04:00.212Z,56.48
2022-11-23T20:08:02.105Z,56.15
2022-11-23T20:12:02.432Z,55.81
2022-11-23T20:16:06.673Z,55.65
2022-11-23T20:20:13.315Z,55.19
2022-11-23T20:24:16.715Z,55.81
2022-11-23T20:28:17.488Z,56.14
2022-11-23T20:32:17.715Z,56.30
2022-11-23T20:36:24.575Z,57.35
2022-11-23T20:40:25.147Z,56.02
2022-11-23T20:44:29.565Z,56.84
2022-11-23T20:48:35.630Z,56.08
2022-11-23T20:52:38.356Z,55.25
2022-11-23T20:56:40.633Z,55.81
2022-11-23T21:00:40.717Z,56.53
2022-11-23T21:04:40.799Z,56.84
2022-11-23T21:08:45.086Z,56.54
2022-11-23T21:12:57.629Z,57.19
2022-11-23T21:17:00.469Z,57.37
2022-11-23T21:21:00.600Z,57.60
2022-11-23T21:25:03.393Z,57.96
2022-11-23T21:29:04.165Z,57.76
2022-11-23T21:33:04.280Z,57.38
2022-11-23T21:37:04.452Z,57.18
2022-11-23T21:41:10.123Z,57.32
2022-11-23T21:45:12.891Z,56.88
2022-11-23T21:49:13.577Z,56.88
2022-11-23T21:53:13.724Z,57.59
2022-11-23T21:57:16.435Z,57.83
2022-11-23T22:01:20.965Z,58.73
2022-11-23T22:05:21.216Z,58.16
2022-11-23T22:09:21.471Z,58.51
2022-11-23T22:13:24.565Z,58.43
2022-11-23T22:17:24.783Z,57.79
2022-11-23T22:21:27.076Z,58.18
2022-11-23T22:25:27.163Z,58.74
2022-11-23T22:29:30.232Z,59.05
2022-11-23T22:33:30.461Z,58.82
2022-11-23T22:37:31.184Z,59.53
2022-11-23T22:41:34.577Z,59.48
2022-11-23T22:45:37.413Z,59.58
2022-11-23T22:49:38.327Z,59.71
2022-11-23T22:53:44.543Z,58.63
2022-11-23T22:57:44.840Z,58.13
2022-11-23T23:01:47.588Z,57.39
2022-11-23T23:05:57.849Z,57.11
2022-11-23T23:09:57.884Z,57.14
2022-11-23T23:13:58.822Z,57.20
2022-11-23T23:18:01.540Z,57.06
2022-11-23T23:22:01.653Z,57.12
2022-11-23T23:26:01.973Z,57.48
2022-11-23T23:30:02.251Z,57.54
2022-11-23T23:34:05.216Z,58.15
2022-11-23T23:38:05.517Z,57.74
2022-11-23T23:42:07.590Z,57.64
2022-11-23T23:46:11.270Z,57.75
2022-11-23T23:50:14.509Z,58.12
2022-11-23T23:54:14.867Z,57.80
2022-11-23T23:58:15.535Z,57.23
